TimeMST,TemperatureF,Dew PointF,Humidity,Sea Level PressureIn,VisibilityMPH,Wind Direction,Wind SpeedMPH,Gust SpeedMPH,PrecipitationIn,Events,Conditions,WindDirDegrees,DateUTC
12:53 AM,28.9,23.0,78,30.17,10.0,South,8.1,-,N/A,,Clear,180,2012-11-14 07:53:00
1:53 AM,28.0,21.9,78,30.18,10.0,SSW,5.8,-,N/A,,Clear,200,2012-11-14 08:53:00
2:53 AM,26.1,21.0,81,30.17,10.0,Calm,Calm,-,N/A,,Clear,0,2012-11-14 09:53:00
3:53 AM,30.9,21.9,69,30.15,10.0,Calm,Calm,-,N/A,,Clear,0,2012-11-14 10:53:00
4:53 AM,24.1,19.9,84,30.21,10.0,Calm,Calm,-,N/A,,Clear,0,2012-11-14 11:53:00
5:53 AM,30.0,21.0,69,30.20,10.0,SSW,4.6,-,N/A,,Clear,200,2012-11-14 12:53:00
6:53 AM,30.9,21.9,69,30.19,10.0,South,5.8,-,N/A,,Partly Cloudy,180,2012-11-14 13:53:00
7:53 AM,32.0,24.1,73,30.18,10.0,South,6.9,-,N/A,,Clear,180,2012-11-14 14:53:00
8:53 AM,36.0,26.1,67,30.17,10.0,Calm,Calm,-,N/A,,Clear,0,2012-11-14 15:53:00
9:53 AM,39.0,28.0,65,30.15,10.0,SSW,10.4,-,N/A,,Clear,210,2012-11-14 16:53:00
10:53 AM,43.0,28.9,58,30.13,10.0,South,8.1,-,N/A,,Clear,190,2012-11-14 17:53:00
11:53 AM,45.0,28.0,52,30.10,10.0,SW,10.4,-,N/A,,Clear,230,2012-11-14 18:53:00
12:53 PM,46.9,27.0,46,30.08,10.0,SW,10.4,-,N/A,,Clear,230,2012-11-14 19:53:00
1:53 PM,48.0,28.0,46,30.08,10.0,West,12.7,-,N/A,,Clear,260,2012-11-14 20:53:00
2:53 PM,48.0,27.0,44,30.09,10.0,West,8.1,-,N/A,,Clear,260,2012-11-14 21:53:00
3:53 PM,41.0,28.9,62,30.12,10.0,West,9.2,-,N/A,,Clear,280,2012-11-14 22:53:00
4:53 PM,37.0,24.1,59,30.17,10.0,NW,9.2,-,N/A,,Clear,320,2012-11-14 23:53:00
5:53 PM,37.9,26.1,62,30.18,10.0,NW,8.1,-,N/A,,Overcast,320,2012-11-15 00:53:00
6:53 PM,37.9,26.1,62,30.19,10.0,NW,6.9,-,N/A,,Overcast,310,2012-11-15 01:53:00
7:53 PM,35.1,26.1,70,30.22,10.0,WNW,6.9,-,N/A,,Scattered Clouds,300,2012-11-15 02:53:00
8:53 PM,35.1,25.0,67,30.24,10.0,Calm,Calm,-,N/A,,Scattered Clouds,0,2012-11-15 03:53:00
9:53 PM,33.1,26.1,75,30.26,10.0,WNW,10.4,-,N/A,,Mostly Cloudy,290,2012-11-15 04:53:00
10:53 PM,32.0,27.0,82,30.27,10.0,West,9.2,-,N/A,,Partly Cloudy,280,2012-11-15 05:53:00
11:53 PM,30.9,26.1,82,30.27,10.0,WNW,6.9,-,N/A,,Clear,290,2012-11-15 06:53:00